Time;durP1;ratioP1;P1;durP2;ratioP2;P2;SDS_P1;SDS_P2;PMS_P1;PMS_P2;Temp;Humidity;BMP_temperature;BMP_pressure;BME280_temperature;BME280_humidity;BME280_pressure;Samples;Min_cycle;Max_cycle;Signal;HPM_P1;HPM_P2
2024/02/22 00:02:52;;;;;;;2.20;2.00;;;;;;;17.33;32.06;97901.94;6972604;28;20237;-79
2024/02/22 00:06:15;;;;;;;5.03;2.40;;;;;;;16.96;32.69;97906.72;6971319;28;20300;-79
2024/02/22 00:09:37;;;;;;;2.57;2.37;;;;;;;16.77;33.52;97906.41;6970871;28;20230;-79
2024/02/22 00:12:59;;;;;;;21.33;2.40;;;;;;;16.48;33.41;97837.16;6971400;28;20238;-79
2024/02/22 00:16:20;;;;;;;2.20;2.00;;;;;;;16.99;33.39;97873.53;6971376;28;20234;-81
2024/02/22 00:19:43;;;;;;;3.10;2.00;;;;;;;17.33;32.83;97847.44;6971112;28;20361;-79
2024/02/22 00:23:05;;;;;;;2.90;2.20;;;;;;;17.06;33.19;97852.28;6971395;28;20292;-79
2024/02/22 00:26:27;;;;;;;2.13;1.90;;;;;;;17.11;33.39;97846.88;6971088;28;20202;-79
2024/02/22 00:29:48;;;;;;;2.63;2.00;;;;;;;17.19;33.14;97829.97;6970540;28;20230;-78
2024/02/22 00:33:10;;;;;;;2.47;2.27;;;;;;;17.18;33.35;97839.25;6972251;28;20795;-79
2024/02/22 00:36:40;;;;;;;4.03;2.30;;;;;;;17.43;32.89;97826.50;6971680;28;20336;-79
2024/02/22 00:40:03;;;;;;;2.37;2.17;;;;;;;17.82;32.59;97818.56;6970496;28;20706;-80
2024/02/22 00:43:24;;;;;;;2.80;2.30;;;;;;;17.01;33.22;97830.50;6970572;28;20260;-79
2024/02/22 00:46:46;;;;;;;2.40;2.10;;;;;;;17.50;33.21;97824.31;6970692;28;20339;-80
2024/02/22 00:50:09;;;;;;;13.20;2.20;;;;;;;16.83;34.74;97817.38;6969829;28;20233;-79
2024/02/22 00:53:31;;;;;;;3.63;2.20;;;;;;;15.91;37.12;97833.53;6970326;28;20202;-79
2024/02/22 00:56:53;;;;;;;1.50;1.40;;;;;;;16.53;36.73;97809.13;6969610;28;20262;-79
2024/02/22 01:00:15;;;;;;;3.27;2.00;;;;;;;16.33;37.27;97820.72;6970026;28;20285;-79
2024/02/22 01:03:37;;;;;;;2.17;1.90;;;;;;;16.65;37.07;97786.06;6970516;28;20310;-79
2024/02/22 01:06:59;;;;;;;2.57;1.80;;;;;;;16.42;38.04;97793.84;6970114;28;20210;-80
2024/02/22 01:10:22;;;;;;;2.03;1.80;;;;;;;16.23;38.61;97782.59;6969730;28;20300;-80
2024/02/22 01:13:44;;;;;;;1.90;1.80;;;;;;;16.15;39.10;97793.19;6969849;28;20268;-79
2024/02/22 01:17:06;;;;;;;2.33;1.83;;;;;;;15.83;40.38;97787.00;6968777;28;20226;-79
2024/02/22 01:20:27;;;;;;;2.03;1.93;;;;;;;15.45;41.09;97760.16;6969007;28;20215;-80
2024/02/22 01:23:49;;;;;;;2.43;2.23;;;;;;;15.79;40.86;97775.84;6967201;28;20324;-79
2024/02/22 01:27:12;;;;;;;2.00;1.90;;;;;;;15.39;42.11;97755.75;6969403;28;20831;-79
2024/02/22 01:30:34;;;;;;;2.27;2.07;;;;;;;15.57;42.01;97739.84;6970199;28;20240;-79
2024/02/22 01:33:55;;;;;;;4.73;2.00;;;;;;;15.56;42.37;97757.22;6971566;28;20205;-79
2024/02/22 01:37:17;;;;;;;2.37;2.17;;;;;;;15.42;42.45;97745.19;6969803;28;20233;-79
2024/02/22 01:40:38;;;;;;;3.77;2.20;;;;;;;15.41;42.69;97721.81;6961761;28;20771;-79
2024/02/22 01:44:01;;;;;;;3.30;2.13;;;;;;;15.28;43.10;97722.22;6941327;28;20347;-79
2024/02/22 01:47:23;;;;;;;2.57;2.10;;;;;;;15.66;42.43;97702.94;6941556;28;20343;-80
2024/02/22 01:50:44;;;;;;;2.60;2.17;;;;;;;15.71;42.13;97689.41;6941272;28;20786;-79
2024/02/22 01:54:06;;;;;;;2.40;2.20;;;;;;;15.92;41.74;97701.97;6940754;28;20762;-79
2024/02/22 01:57:27;;;;;;;1.90;1.80;;;;;;;16.16;41.30;97675.16;6940882;28;20705;-79
2024/02/22 02:00:50;;;;;;;2.13;1.93;;;;;;;15.69;42.32;97680.66;6941054;28;20599;-79
2024/02/22 02:04:13;;;;;;;2.50;2.27;;;;;;;15.75;42.62;97668.75;6941136;28;20221;-79
2024/02/22 02:07:36;;;;;;;3.13;2.40;;;;;;;15.95;42.39;97660.69;6941196;28;20238;-79
2024/02/22 02:10:57;;;;;;;2.10;1.90;;;;;;;16.23;41.82;97656.69;6941488;28;20303;-79
2024/02/22 02:14:19;;;;;;;2.67;1.90;;;;;;;15.66;42.78;97664.91;6941075;28;20300;-79
2024/02/22 02:17:43;;;;;;;2.23;2.03;;;;;;;15.48;43.62;97640.91;6939094;28;20241;-79
2024/02/22 02:21:07;;;;;;;3.80;2.13;;;;;;;15.13;44.93;97627.09;6941267;28;20208;-79
2024/02/22 02:24:33;;;;;;;2.10;1.90;;;;;;;15.29;44.65;97623.38;6941334;28;20296;-79
2024/02/22 02:27:56;;;;;;;1.73;1.63;;;;;;;15.51;44.93;97617.84;6941025;28;20225;-79
2024/02/22 02:31:17;;;;;;;8.17;2.50;;;;;;;15.44;44.48;97592.78;6941902;28;20292;-79
2024/02/22 02:34:39;;;;;;;2.07;1.93;;;;;;;15.46;44.82;97598.78;6941556;28;20237;-80
2024/02/22 02:38:00;;;;;;;1.93;1.83;;;;;;;15.15;45.28;97607.84;6940141;28;20324;-80
2024/02/22 02:41:22;;;;;;;2.20;2.00;;;;;;;15.46;45.04;97596.09;6940552;28;20303;-81
2024/02/22 02:44:45;;;;;;;2.13;1.77;;;;;;;15.42;45.17;97587.66;6940939;28;20744;-79
2024/02/22 02:48:07;;;;;;;2.20;2.03;;;;;;;15.28;45.63;97588.38;6940226;28;20233;-80
2024/02/22 02:51:30;;;;;;;1.70;1.60;;;;;;;15.73;44.98;97591.28;6940539;28;20209;-79
2024/02/22 02:54:51;;;;;;;1.90;1.80;;;;;;;15.16;46.04;97574.97;6941025;28;20660;-80
2024/02/22 02:58:13;;;;;;;2.57;1.80;;;;;;;15.14;46.32;97557.31;6939426;28;20376;-80
2024/02/22 03:01:36;;;;;;;2.33;2.13;;;;;;;14.80;47.47;97566.91;6940821;28;20788;-79
2024/02/22 03:04:58;;;;;;;2.97;2.07;;;;;;;14.80;47.58;97556.06;6941461;28;20213;-79
2024/02/22 03:08:19;;;;;;;1.80;1.70;;;;;;;15.22;46.81;97554.13;6945092;28;20368;-79
2024/02/22 03:11:41;;;;;;;2.10;2.00;;;;;;;15.12;47.15;97545.91;6946624;28;20308;-80
2024/02/22 03:15:02;;;;;;;1.90;1.70;;;;;;;14.97;47.63;97533.09;6947578;28;20696;-80
2024/02/22 03:18:25;;;;;;;1.67;1.57;;;;;;;14.68;48.45;97528.31;6945026;28;20262;-80
2024/02/22 03:21:47;;;;;;;1.53;1.50;;;;;;;14.59;48.95;97529.88;6945170;28;20215;-81
2024/02/22 03:25:10;;;;;;;1.80;1.70;;;;;;;14.39;49.53;97521.59;6945102;28;20302;-79
2024/02/22 03:28:31;;;;;;;2.50;1.70;;;;;;;14.63;49.59;97518.22;6944227;28;20225;-79
2024/02/22 03:31:53;;;;;;;1.70;1.60;;;;;;;15.09;48.70;97514.69;6945109;28;20287;-79
2024/02/22 03:35:16;;;;;;;2.00;1.90;;;;;;;14.84;49.52;97513.75;6945077;28;20307;-80
2024/02/22 03:38:37;;;;;;;1.97;1.80;;;;;;;14.81;49.76;97519.72;6943751;28;20234;-81
2024/02/22 03:41:59;;;;;;;1.90;1.80;;;;;;;14.78;49.57;97514.78;6944768;28;20287;-80
2024/02/22 03:45:21;;;;;;;1.83;1.70;;;;;;;15.03;49.15;97495.91;6944755;28;20292;-81
2024/02/22 03:48:43;;;;;;;1.73;1.63;;;;;;;14.97;49.11;97488.84;6944121;28;20248;-81
2024/02/22 03:52:07;;;;;;;2.17;2.00;;;;;;;14.88;49.54;97491.25;6944635;28;20360;-79
2024/02/22 03:55:30;;;;;;;2.00;1.80;;;;;;;15.04;48.97;97460.38;6944020;28;20208;-79
2024/02/22 03:58:51;;;;;;;2.13;1.93;;;;;;;14.31;51.23;97468.69;6943346;28;20747;-80
2024/02/22 04:02:13;;;;;;;1.83;1.73;;;;;;;14.18;52.61;97493.50;6943948;28;20213;-80
2024/02/22 04:05:34;;;;;;;2.00;1.77;;;;;;;14.39;52.08;97473.59;6943772;28;20354;-79
2024/02/22 04:08:58;;;;;;;2.30;1.70;;;;;;;14.06;53.20;97479.31;6943508;28;20354;-81
2024/02/22 04:12:20;;;;;;;3.07;1.80;;;;;;;14.01;54.36;97471.13;6944019;28;20236;-80
2024/02/22 04:15:42;;;;;;;2.50;1.83;;;;;;;14.31;53.25;97435.31;6942713;28;20210;-80
2024/02/22 04:19:04;;;;;;;2.23;2.03;;;;;;;14.37;53.53;97469.50;6942257;28;20307;-80
2024/02/22 04:22:25;;;;;;;1.80;1.70;;;;;;;14.81;52.53;97473.59;6943824;28;20671;-79
2024/02/22 04:25:48;;;;;;;1.47;1.47;;;;;;;14.49;53.29;97470.97;6966622;28;20241;-79
2024/02/22 04:29:09;;;;;;;3.17;1.90;;;;;;;14.11;54.03;97470.38;6970381;28;20841;-79
2024/02/22 04:32:31;;;;;;;2.30;1.57;;;;;;;14.63;53.36;97472.13;6970646;28;20346;-79
2024/02/22 04:35:53;;;;;;;1.77;1.67;;;;;;;14.57;53.18;97448.75;6970937;28;20295;-80
2024/02/22 04:39:15;;;;;;;1.67;1.57;;;;;;;14.59;53.31;97454.75;6970281;28;20235;-81
2024/02/22 04:42:38;;;;;;;1.67;1.57;;;;;;;14.53;53.93;97454.97;6970854;28;20247;-79
2024/02/22 04:45:59;;;;;;;1.80;1.70;;;;;;;14.53;54.36;97442.25;6970280;28;20209;-80
2024/02/22 04:49:21;;;;;;;1.70;1.60;;;;;;;14.31;54.93;97449.69;6970169;28;20712;-81
2024/02/22 04:52:43;;;;;;;3.37;1.97;;;;;;;14.52;54.71;97435.16;6970181;28;20341;-79
2024/02/22 04:56:05;;;;;;;1.80;1.70;;;;;;;14.06;55.86;97433.22;6970771;28;20325;-80
2024/02/22 04:59:28;;;;;;;1.83;1.73;;;;;;;13.99;55.94;97429.91;6969212;28;20829;-79
2024/02/22 05:02:49;;;;;;;2.33;1.80;;;;;;;14.15;55.91;97412.69;6969957;28;20214;-79
2024/02/22 05:06:11;;;;;;;1.53;1.43;;;;;;;13.86;56.45;97405.97;6970063;28;20208;-78
2024/02/22 05:09:32;;;;;;;1.70;1.60;;;;;;;14.07;56.21;97409.63;6969478;28;20314;-79
2024/02/22 05:12:54;;;;;;;1.70;1.60;;;;;;;14.16;55.86;97414.31;6969596;28;20264;-80
2024/02/22 05:16:18;;;;;;;1.70;1.60;;;;;;;14.16;56.64;97399.97;6968749;28;20350;-79
2024/02/22 05:19:40;;;;;;;1.43;1.40;;;;;;;13.91;57.18;97405.19;6968644;28;20233;-79
2024/02/22 05:23:01;;;;;;;1.60;1.50;;;;;;;14.09;57.35;97408.31;6969971;28;20331;-79
2024/02/22 05:26:23;;;;;;;1.70;1.60;;;;;;;13.96;57.38;97407.94;6969829;28;20681;-80
2024/02/22 05:29:46;;;;;;;1.70;1.60;;;;;;;13.60;58.95;97406.03;6968565;28;20320;-79
2024/02/22 05:33:10;;;;;;;2.43;2.23;;;;;;;13.67;59.27;97399.31;6969795;28;20213;-79
2024/02/22 05:36:31;;;;;;;2.13;1.93;;;;;;;13.71;59.58;97377.94;6969655;28;20213;-79
2024/02/22 05:39:55;;;;;;;1.93;1.50;;;;;;;13.90;59.05;97366.47;6968837;28;20574;-80
2024/02/22 05:43:16;;;;;;;2.83;1.90;;;;;;;13.35;61.29;97376.84;6969193;28;20210;-79
2024/02/22 05:46:38;;;;;;;2.10;2.00;;;;;;;13.40;61.10;97370.66;6969675;28;20226;-79
2024/02/22 05:50:01;;;;;;;1.73;1.63;;;;;;;13.44;61.29;97371.75;6969237;28;20316;-79
2024/02/22 05:53:22;;;;;;;2.00;1.90;;;;;;;13.80;60.31;97377.22;6969360;28;20345;-79
2024/02/22 05:56:44;;;;;;;1.97;1.87;;;;;;;13.49;60.68;97361.81;6969502;28;20235;-79
2024/02/22 06:00:10;;;;;;;2.50;1.97;;;;;;;13.76;60.57;97356.31;6968962;28;20316;-80
2024/02/22 06:03:31;;;;;;;3.33;2.20;;;;;;;14.13;59.65;97351.69;6969105;28;20693;-78
2024/02/22 06:06:55;;;;;;;1.70;1.60;;;;;;;14.15;59.40;97353.06;6968760;28;20211;-79
2024/02/22 06:10:16;;;;;;;1.90;1.80;;;;;;;13.90;60.20;97350.19;6962830;28;20285;-81
2024/02/22 06:13:38;;;;;;;1.90;1.80;;;;;;;13.97;59.99;97339.94;6967878;28;20352;-79
2024/02/22 06:16:59;;;;;;;1.63;1.53;;;;;;;14.05;59.58;97330.50;6968678;28;20236;-78
2024/02/22 06:20:21;;;;;;;1.80;1.70;;;;;;;14.11;60.19;97330.25;6967928;28;20306;-80
2024/02/22 06:23:44;;;;;;;2.10;1.90;;;;;;;14.12;59.94;97310.22;6968865;28;20211;-79
2024/02/22 06:27:05;;;;;;;2.13;2.00;;;;;;;13.80;60.85;97322.25;6968187;28;20295;-79
2024/02/22 06:30:27;;;;;;;1.80;1.70;;;;;;;13.73;60.74;97308.91;6967635;28;20298;-80
2024/02/22 06:33:48;;;;;;;1.67;1.57;;;;;;;13.89;60.47;97317.94;6968506;28;20359;-79
2024/02/22 06:37:12;;;;;;;1.60;1.50;;;;;;;13.83;60.43;97298.16;6965767;28;20260;-81
2024/02/22 06:40:35;;;;;;;1.80;1.70;;;;;;;13.77;60.65;97280.22;6948175;28;20231;-81
2024/02/22 06:43:56;;;;;;;2.00;1.80;;;;;;;13.96;60.19;97302.25;6952466;28;20745;-81
2024/02/22 06:47:18;;;;;;;1.87;1.77;;;;;;;14.05;61.01;97298.00;6967486;28;20220;-80
2024/02/22 06:50:40;;;;;;;1.60;1.50;;;;;;;13.94;60.83;97296.31;6977822;28;20307;-78
2024/02/22 06:54:01;;;;;;;2.40;1.73;;;;;;;13.95;60.69;97306.06;6979281;28;20217;-80
2024/02/22 06:57:24;;;;;;;1.40;1.40;;;;;;;13.85;60.59;97279.72;6979599;28;20292;-80
2024/02/22 07:00:46;;;;;;;1.67;1.57;;;;;;;13.66;61.81;97302.09;6955013;28;20227;-80
2024/02/22 07:04:09;;;;;;;1.80;1.70;;;;;;;13.57;62.01;97296.34;6952966;28;20373;-80
2024/02/22 07:07:31;;;;;;;2.07;1.97;;;;;;;13.45;61.82;97281.38;6952510;28;20232;-79
2024/02/22 07:10:52;;;;;;;1.63;1.53;;;;;;;13.68;61.52;97260.13;6953636;28;20762;-78
2024/02/22 07:14:15;;;;;;;1.80;1.70;;;;;;;13.66;61.59;97264.16;6958014;28;20219;-79
2024/02/22 07:17:37;;;;;;;1.80;1.70;;;;;;;13.51;61.75;97274.91;6954144;28;20334;-80
2024/02/22 07:20:58;;;;;;;2.03;1.60;;;;;;;13.74;61.21;97275.31;6950917;28;20241;-80
2024/02/22 07:24:20;;;;;;;1.60;1.50;;;;;;;13.70;61.12;97274.22;6951901;28;20214;-80
2024/02/22 07:27:41;;;;;;;5.43;1.90;;;;;;;13.67;61.93;97273.91;6950527;28;20230;-81
2024/02/22 07:31:04;;;;;;;2.60;2.00;;;;;;;13.96;60.30;97277.88;6960960;28;20289;-79
2024/02/22 07:34:26;;;;;;;2.00;1.80;;;;;;;13.99;60.84;97278.16;6979559;28;20678;-80
2024/02/22 07:37:48;;;;;;;2.10;2.00;;;;;;;13.74;61.13;97278.03;6976801;28;20374;-80
2024/02/22 07:41:15;;;;;;;2.10;2.00;;;;;;;13.84;61.15;97282.69;6968911;28;20208;-78
2024/02/22 07:44:37;;;;;;;2.60;2.13;;;;;;;13.79;61.08;97263.69;6948528;28;20606;-80
2024/02/22 07:48:06;;;;;;;2.30;1.73;;;;;;;13.96;60.76;97262.44;6944392;28;20228;-77
2024/02/22 07:51:30;;;;;;;2.00;1.90;;;;;;;13.68;61.41;97272.88;6954455;28;20207;-76
2024/02/22 07:55:00;;;;;;;1.80;1.70;;;;;;;13.93;60.85;97254.03;6951428;28;20212;-78
2024/02/22 07:58:25;;;;;;;1.90;1.80;;;;;;;14.31;59.62;97270.75;6867302;28;20230;-77
2024/02/22 08:01:46;;;;;;;4.97;1.57;;;;;;;14.07;59.84;97239.75;6874849;28;20501;-78
2024/02/22 08:05:09;;;;;;;2.17;1.70;;;;;;;14.39;58.86;97245.03;6863597;28;20667;-77
2024/02/22 08:08:31;;;;;;;1.70;1.60;;;;;;;14.22;59.25;97258.00;6884261;28;20222;-79
2024/02/22 08:11:52;;;;;;;2.77;1.83;;;;;;;14.10;59.35;97225.66;6885815;28;20734;-81
2024/02/22 08:15:15;;;;;;;1.70;1.60;;;;;;;14.01;59.92;97251.63;6905061;28;20238;-80
2024/02/22 08:18:37;;;;;;;1.50;1.40;;;;;;;13.92;60.10;97247.00;6948838;28;20269;-79
2024/02/22 08:22:00;;;;;;;2.13;1.57;;;;;;;14.40;58.63;97231.19;6950417;28;20274;-79
2024/02/22 08:25:21;;;;;;;1.50;1.40;;;;;;;14.05;59.44;97232.94;6949313;28;20292;-80
2024/02/22 08:28:44;;;;;;;1.50;1.40;;;;;;;14.20;58.69;97227.59;6949302;28;20787;-80
2024/02/22 08:32:07;;;;;;;1.30;1.30;;;;;;;14.37;58.87;97230.91;6949807;28;20231;-80
2024/02/22 08:35:29;;;;;;;1.30;1.30;;;;;;;14.61;58.47;97210.34;6952848;28;20208;-79
2024/02/22 08:38:52;;;;;;;1.50;1.40;;;;;;;14.77;57.77;97212.00;6963890;28;20232;-79
2024/02/22 08:42:13;;;;;;;1.33;1.33;;;;;;;13.93;59.44;97214.19;6968542;28;20292;-80
2024/02/22 08:45:35;;;;;;;1.33;1.30;;;;;;;14.16;59.80;97207.53;6975885;28;20235;-80
2024/02/22 08:48:57;;;;;;;1.17;1.17;;;;;;;14.35;58.56;97184.28;6970206;28;20225;-81
2024/02/22 08:52:18;;;;;;;2.10;1.20;;;;;;;14.08;60.04;97194.47;6976654;28;20196;-79
2024/02/22 08:55:42;;;;;;;1.10;1.10;;;;;;;14.10;59.22;97192.34;6985321;28;20274;-79
2024/02/22 08:59:04;;;;;;;1.30;1.30;;;;;;;14.64;58.49;97205.22;6977322;28;20232;-81
2024/02/22 09:02:25;;;;;;;1.27;1.27;;;;;;;14.28;58.94;97195.38;6947695;28;20214;-78
2024/02/22 09:05:47;;;;;;;1.47;1.47;;;;;;;14.62;58.52;97187.59;6956072;28;20289;-79
2024/02/22 09:09:08;;;;;;;1.10;1.10;;;;;;;14.30;58.68;97176.97;6968465;28;20315;-79
2024/02/22 09:12:31;;;;;;;1.20;1.20;;;;;;;14.53;58.70;97186.50;6969397;28;20213;-78
2024/02/22 09:15:53;;;;;;;1.20;1.20;;;;;;;14.37;57.86;97163.13;6966575;28;20349;-80
2024/02/22 09:19:14;;;;;;;0.97;0.97;;;;;;;14.20;58.41;97146.28;6940927;28;20712;-80
2024/02/22 09:22:36;;;;;;;1.33;1.23;;;;;;;14.22;58.62;97134.09;6940866;28;20298;-78
2024/02/22 09:25:58;;;;;;;1.20;1.20;;;;;;;14.33;58.44;97134.97;6941171;28;20208;-78
2024/02/22 09:29:21;;;;;;;1.27;1.10;;;;;;;14.79;57.42;97131.16;6940255;28;20359;-79
2024/02/22 09:32:43;;;;;;;1.30;1.30;;;;;;;14.95;56.63;97144.47;6952031;28;20750;-79
2024/02/22 09:36:08;;;;;;;1.10;1.10;;;;;;;15.15;56.19;97116.50;6969037;28;20208;-80
2024/02/22 09:39:38;;;;;;;1.00;1.00;;;;;;;14.73;56.79;97113.25;6974576;28;20233;-80
2024/02/22 09:43:00;;;;;;;1.00;1.00;;;;;;;14.08;58.05;97100.44;6967823;28;20218;-78
2024/02/22 09:46:23;;;;;;;1.20;1.20;;;;;;;14.66;56.79;97100.00;6968421;28;20692;-80
2024/02/22 09:49:49;;;;;;;1.17;1.10;;;;;;;14.62;57.02;97120.59;6966436;28;20249;-79
2024/02/22 09:53:11;;;;;;;1.00;1.00;;;;;;;14.64;58.13;97123.84;6970989;28;20199;-80
2024/02/22 09:56:33;;;;;;;1.07;1.07;;;;;;;14.83;58.14;97124.13;6972105;28;20213;-78
2024/02/22 09:59:55;;;;;;;1.10;1.10;;;;;;;14.78;58.40;97116.81;6970406;28;20236;-80
2024/02/22 10:03:37;;;;;;;1.00;1.00;;;;;;;14.53;58.25;97094.28;6972928;28;20313;-81
2024/02/22 10:07:00;;;;;;;1.10;1.10;;;;;;;14.77;58.59;97085.34;6970533;28;20207;-81
2024/02/22 10:10:26;;;;;;;1.00;1.00;;;;;;;14.67;57.56;97095.34;6972870;28;20199;-81
2024/02/22 10:13:47;;;;;;;1.00;1.00;;;;;;;14.97;57.32;97107.00;6972058;28;20219;-80
2024/02/22 10:17:09;;;;;;;0.93;0.93;;;;;;;15.18;57.11;97091.50;6973711;28;20204;-81
2024/02/22 10:20:32;;;;;;;1.40;1.30;;;;;;;14.86;57.85;97091.81;6974065;28;20839;-82
2024/02/22 10:23:57;;;;;;;1.40;1.30;;;;;;;15.28;56.31;97083.31;6969893;28;20601;-81
2024/02/22 10:27:18;;;;;;;1.47;1.37;;;;;;;15.26;55.60;97072.75;6972056;28;20267;-81
2024/02/22 10:30:40;;;;;;;1.10;1.10;;;;;;;15.31;55.44;97074.63;6971955;28;20332;-80
2024/02/22 10:34:03;;;;;;;1.00;1.00;;;;;;;15.11;56.76;97053.75;6967562;28;20307;-79
2024/02/22 10:37:26;;;;;;;1.03;1.03;;;;;;;15.53;55.22;97067.78;6972339;28;20240;-80
2024/02/22 10:40:49;;;;;;;1.10;1.10;;;;;;;15.30;55.82;97040.41;6967645;28;20681;-79
2024/02/22 10:44:11;;;;;;;0.83;0.83;;;;;;;15.20;55.85;97046.69;6971521;28;20214;-82
2024/02/22 10:51:17;;;;;;;1.20;1.10;;;;;;;15.56;55.06;97050.09;6964786;28;20247;-81
2024/02/22 10:55:01;;;;;;;1.00;1.00;;;;;;;15.51;55.19;97033.84;6971120;28;20245;-81
2024/02/22 10:58:25;;;;;;;1.03;1.03;;;;;;;15.70;55.50;97037.53;6972043;28;20366;-80
2024/02/22 11:01:47;;;;;;;1.00;1.00;;;;;;;15.30;55.82;97030.38;6974039;28;20205;-81
2024/02/22 11:05:10;;;;;;;1.00;1.00;;;;;;;15.44;56.13;97038.75;6968289;28;20680;-79
2024/02/22 11:08:32;;;;;;;0.70;0.70;;;;;;;15.47;56.05;97024.63;6966731;28;21083;-79
2024/02/22 11:12:01;;;;;;;0.90;0.90;;;;;;;15.33;56.28;97027.13;6965202;28;20237;-78
2024/02/22 11:15:34;;;;;;;1.10;1.10;;;;;;;15.38;56.38;97027.09;6967447;28;20217;-79
2024/02/22 11:19:04;;;;;;;1.00;1.00;;;;;;;15.69;56.30;97011.47;6983554;23;20254;-81
2024/02/22 11:22:34;;;;;;;0.90;0.90;;;;;;;16.04;55.02;97009.31;6973724;28;20221;-81
2024/02/22 11:25:55;;;;;;;1.00;1.00;;;;;;;16.11;54.88;96998.94;6972377;28;20212;-81
2024/02/22 11:29:29;;;;;;;2.93;2.37;;;;;;;15.11;57.99;96991.34;6975034;28;20868;-81
2024/02/22 11:32:51;;;;;;;1.00;1.00;;;;;;;15.56;56.91;96979.47;6978549;28;20218;-81
2024/02/22 11:36:16;;;;;;;1.27;1.10;;;;;;;15.06;58.39;96964.25;6976439;28;20694;-81
2024/02/22 11:39:38;;;;;;;1.00;1.00;;;;;;;15.17;58.76;96943.28;6974356;28;20574;-81
2024/02/22 11:43:00;;;;;;;0.80;0.80;;;;;;;15.04;58.51;96933.03;6971630;28;20253;-80
2024/02/22 11:46:23;;;;;;;1.30;1.20;;;;;;;15.06;58.76;96939.81;6971571;28;20212;-81
2024/02/22 11:49:44;;;;;;;1.43;1.00;;;;;;;14.97;58.78;96925.19;6971487;28;20312;-79
2024/02/22 11:53:07;;;;;;;1.00;1.00;;;;;;;14.95;58.24;96858.72;6970000;28;20300;-79
2024/02/22 11:56:29;;;;;;;1.33;1.23;;;;;;;15.05;58.84;96899.38;6973119;28;20209;-81
2024/02/22 11:59:50;;;;;;;1.47;1.20;;;;;;;14.79;58.78;96874.25;6973939;28;20259;-81
2024/02/22 12:03:14;;;;;;;1.43;1.33;;;;;;;15.18;58.53;96869.72;6968086;28;20694;-81
2024/02/22 12:06:36;;;;;;;1.27;1.27;;;;;;;15.42;57.94;96861.72;6971761;28;20737;-78
2024/02/22 12:09:57;;;;;;;1.37;1.30;;;;;;;15.35;58.05;96848.47;6970850;28;20639;-78
2024/02/22 12:13:19;;;;;;;1.23;1.17;;;;;;;15.34;57.35;96814.25;6970786;28;20756;-78
2024/02/22 12:16:41;;;;;;;0.90;0.90;;;;;;;14.97;58.16;96800.38;6973503;28;20299;-79
2024/02/22 12:20:06;;;;;;;1.00;1.00;;;;;;;15.56;56.88;96787.44;6969299;28;20719;-78
2024/02/22 12:23:28;;;;;;;0.83;0.83;;;;;;;16.09;55.11;96805.41;6955756;28;20202;-79
2024/02/22 12:26:52;;;;;;;1.27;1.00;;;;;;;15.64;55.25;96805.03;6943584;28;20347;-79
2024/02/22 12:30:14;;;;;;;0.93;0.93;;;;;;;15.63;55.01;96790.66;6942488;28;20320;-78
2024/02/22 12:33:36;;;;;;;0.90;0.90;;;;;;;15.97;54.41;96777.81;6943935;28;20346;-80
2024/02/22 12:36:59;;;;;;;0.83;0.83;;;;;;;15.51;53.87;96783.97;6946775;28;20220;-81
2024/02/22 12:40:21;;;;;;;0.90;0.90;;;;;;;15.36;54.87;96779.50;6974734;28;20271;-80
2024/02/22 12:43:49;;;;;;;0.80;0.80;;;;;;;15.62;54.04;96764.56;6977078;28;20573;-79
2024/02/22 12:47:12;;;;;;;0.97;0.97;;;;;;;15.69;53.47;96762.34;6973862;28;20196;-82
2024/02/22 12:50:34;;;;;;;1.40;1.00;;;;;;;16.34;50.92;96750.72;6973151;28;20208;-82
2024/02/22 12:53:56;;;;;;;0.70;0.70;;;;;;;16.00;51.65;96760.94;6972942;28;20219;-80
2024/02/22 12:57:18;;;;;;;0.90;0.90;;;;;;;16.08;52.34;96748.59;6973632;28;20728;-80
2024/02/22 13:00:39;;;;;;;0.97;0.97;;;;;;;16.19;51.42;96740.06;6973303;28;20315;-81
2024/02/22 13:04:01;;;;;;;1.80;0.90;;;;;;;16.11;51.18;96732.50;6952261;28;20227;-82
2024/02/22 13:07:22;;;;;;;0.80;0.80;;;;;;;16.02;51.82;96720.69;6945330;28;20385;-82
2024/02/22 13:10:46;;;;;;;0.90;0.90;;;;;;;15.92;51.86;96728.16;6960461;28;20691;-78
2024/02/22 13:14:07;;;;;;;0.80;0.80;;;;;;;15.98;52.10;96707.97;6969085;28;20206;-78
2024/02/22 13:17:29;;;;;;;1.37;1.00;;;;;;;15.81;52.29;96694.81;6968484;28;20226;-78
2024/02/22 13:20:50;;;;;;;1.00;1.00;;;;;;;15.31;54.27;96681.75;6968481;28;20779;-77
2024/02/22 13:24:13;;;;;;;0.90;0.90;;;;;;;15.56;53.92;96683.41;6968428;28;20241;-78
2024/02/22 13:27:36;;;;;;;1.10;1.10;;;;;;;15.66;52.87;96678.72;6968133;28;20230;-79
2024/02/22 13:30:58;;;;;;;1.00;1.00;;;;;;;15.96;52.48;96653.91;6976344;28;20612;-80
2024/02/22 13:34:19;;;;;;;1.07;1.07;;;;;;;15.71;53.49;96654.22;6978798;28;20212;-81
2024/02/22 13:37:41;;;;;;;1.27;1.17;;;;;;;15.99;53.35;96668.81;6977770;28;20270;-81
2024/02/22 13:41:03;;;;;;;1.20;1.20;;;;;;;16.00;53.17;96648.69;6978045;28;20253;-81
2024/02/22 13:44:26;;;;;;;1.07;1.07;;;;;;;16.12;53.68;96640.91;6976446;28;20211;-80
2024/02/22 13:47:48;;;;;;;0.90;0.90;;;;;;;15.57;54.11;96642.41;6974332;28;20248;-80
2024/02/22 13:51:10;;;;;;;1.80;1.00;;;;;;;16.00;53.98;96637.81;6966402;28;20243;-80
2024/02/22 13:54:31;;;;;;;1.97;1.13;;;;;;;15.89;53.77;96614.59;6976420;28;20267;-79
2024/02/22 13:57:53;;;;;;;1.30;1.20;;;;;;;15.62;54.14;96604.31;6974922;28;20243;-80
2024/02/22 14:01:17;;;;;;;2.77;1.37;;;;;;;15.55;55.42;96622.06;6974164;28;20247;-79
2024/02/22 14:04:39;;;;;;;0.90;0.90;;;;;;;15.55;54.45;96616.63;6976279;28;20199;-78
2024/02/22 14:08:01;;;;;;;0.90;0.90;;;;;;;15.97;54.06;96617.47;6966809;28;20237;-78
2024/02/22 14:11:22;;;;;;;1.00;1.00;;;;;;;15.74;55.59;96615.59;6967934;28;20752;-78
2024/02/22 14:14:44;;;;;;;1.60;1.50;;;;;;;15.72;55.04;96606.94;6967397;28;20238;-77
2024/02/22 14:18:08;;;;;;;0.87;0.87;;;;;;;15.65;55.30;96597.50;6966945;28;20247;-79
2024/02/22 14:21:30;;;;;;;2.13;1.10;;;;;;;15.87;55.13;96597.78;6967259;28;20234;-78
2024/02/22 14:24:51;;;;;;;1.00;1.00;;;;;;;16.12;54.73;96584.66;6967601;28;20245;-78
2024/02/22 14:28:13;;;;;;;1.23;1.23;;;;;;;16.09;54.60;96587.13;6966749;28;20327;-78
2024/02/22 14:31:34;;;;;;;1.10;1.10;;;;;;;15.48;55.05;96570.81;6968209;28;20340;-78
2024/02/22 14:34:57;;;;;;;1.27;1.17;;;;;;;15.73;55.04;96558.81;6967739;28;20363;-78
2024/02/22 14:38:20;;;;;;;1.37;1.27;;;;;;;15.84;56.00;96552.16;6961381;28;20887;-78
2024/02/22 14:41:41;;;;;;;2.67;1.60;;;;;;;15.87;54.95;96544.22;6968645;28;20235;-80
2024/02/22 14:45:03;;;;;;;1.87;1.20;;;;;;;16.33;53.61;96528.06;6968632;28;20215;-79
2024/02/22 14:48:25;;;;;;;1.40;1.30;;;;;;;16.55;52.68;96528.25;6968442;28;20227;-79
2024/02/22 14:51:47;;;;;;;1.00;1.00;;;;;;;15.96;54.00;96520.72;6968288;28;20288;-79
2024/02/22 14:55:09;;;;;;;1.40;1.30;;;;;;;15.89;53.64;96516.75;6962599;28;20865;-79
2024/02/22 14:58:31;;;;;;;1.17;1.07;;;;;;;15.74;53.64;96487.91;6968176;28;20236;-79
2024/02/22 15:01:52;;;;;;;0.90;0.90;;;;;;;15.88;52.90;96496.94;6969311;28;20280;-79
2024/02/22 15:05:14;;;;;;;2.03;1.93;;;;;;;15.71;54.10;96507.53;6971604;28;20690;-81
2024/02/22 15:08:37;;;;;;;0.80;0.80;;;;;;;16.00;53.39;96499.22;6971223;28;20375;-81
2024/02/22 15:12:01;;;;;;;1.07;1.07;;;;;;;16.02;52.44;96484.22;6964500;28;20742;-77
2024/02/22 15:15:22;;;;;;;0.90;0.90;;;;;;;15.92;53.39;96499.88;6945910;28;20207;-79
2024/02/22 15:18:44;;;;;;;1.00;1.00;;;;;;;16.16;52.07;96484.28;6964801;28;20307;-77
2024/02/22 15:22:05;;;;;;;1.10;1.10;;;;;;;16.75;51.82;96478.94;6971750;28;20323;-78
2024/02/22 15:25:28;;;;;;;1.00;1.00;;;;;;;16.17;51.83;96478.53;6971659;28;20205;-79
2024/02/22 15:28:50;;;;;;;0.93;0.93;;;;;;;16.22;52.69;96480.38;6964494;28;20260;-77
2024/02/22 15:32:11;;;;;;;1.17;1.17;;;;;;;16.14;51.56;96457.38;6971889;28;20663;-79
2024/02/22 15:35:33;;;;;;;1.10;1.10;;;;;;;16.43;51.49;96468.91;6971954;28;20722;-77
2024/02/22 15:38:54;;;;;;;0.90;0.90;;;;;;;16.44;52.03;96469.69;6970778;28;20257;-77
2024/02/22 15:42:17;;;;;;;1.10;1.10;;;;;;;15.81;52.80;96461.16;6971375;28;20233;-78
2024/02/22 15:45:39;;;;;;;0.97;0.97;;;;;;;16.19;52.83;96456.50;6964888;28;20287;-79
2024/02/22 15:49:00;;;;;;;1.00;1.00;;;;;;;15.55;54.15;96450.97;6970868;28;20229;-77
2024/02/22 15:52:22;;;;;;;1.10;1.00;;;;;;;16.16;53.41;96452.47;6971696;28;20297;-77
2024/02/22 15:55:43;;;;;;;1.00;1.00;;;;;;;15.89;53.26;96452.38;6970897;28;20730;-78
2024/02/22 15:59:06;;;;;;;1.00;1.00;;;;;;;16.20;52.68;96425.47;6970607;28;20331;-80